createdAt,value
2019-02-11T00:00:29.851Z,16.30
2019-02-11T00:03:01.601Z,16.30
2019-02-11T00:05:31.819Z,16.30
2019-02-11T00:08:01.969Z,16.30
2019-02-11T00:10:32.179Z,16.30
2019-02-11T00:13:10.126Z,16.30
2019-02-11T00:15:34.127Z,16.30
2019-02-11T00:18:04.307Z,16.30
2019-02-11T00:20:34.551Z,16.30
2019-02-11T00:23:04.687Z,16.30
2019-02-11T00:25:34.875Z,16.30
2019-02-11T00:28:05.499Z,16.30
2019-02-11T00:30:35.727Z,16.20
2019-02-11T00:33:05.943Z,16.20
2019-02-11T00:35:36.091Z,16.20
2019-02-11T00:38:06.292Z,16.20
2019-02-11T00:40:36.532Z,16.30
2019-02-11T00:43:06.667Z,16.20
2019-02-11T00:45:36.800Z,16.20
2019-02-11T00:48:07.272Z,16.20
2019-02-11T00:50:37.399Z,16.20
2019-02-11T00:53:07.537Z,16.20
2019-02-11T00:55:38.600Z,16.20
2019-02-11T00:58:08.732Z,16.20
2019-02-11T01:00:38.868Z,16.20
2019-02-11T01:03:09.071Z,16.20
2019-02-11T01:05:40.195Z,16.20
2019-02-11T01:08:10.316Z,16.20
2019-02-11T01:10:40.472Z,16.20
2019-02-11T01:13:10.915Z,16.20
2019-02-11T01:15:41.079Z,16.20
2019-02-11T01:18:11.211Z,16.10
2019-02-11T01:20:41.344Z,16.10
2019-02-11T01:23:11.531Z,16.10
2019-02-11T01:25:42.620Z,16.20
2019-02-11T01:28:12.755Z,16.10
2019-02-11T01:30:42.907Z,16.10
2019-02-11T01:33:13.043Z,16.10
2019-02-11T01:35:43.191Z,16.10
2019-02-11T01:38:13.355Z,16.10
2019-02-11T01:40:43.514Z,16.10
2019-02-11T01:43:13.644Z,16.10
2019-02-11T01:45:43.812Z,16.10
2019-02-11T01:48:14.923Z,16.10
2019-02-11T01:50:46.014Z,16.10
2019-02-11T01:53:16.256Z,16.10
2019-02-11T01:55:46.799Z,16.10
2019-02-11T01:58:17.581Z,16.00
2019-02-11T02:00:47.745Z,16.00
2019-02-11T02:03:17.886Z,16.00
2019-02-11T02:05:48.125Z,16.00
2019-02-11T02:08:18.558Z,16.00
2019-02-11T02:10:48.692Z,16.00
2019-02-11T02:13:18.835Z,16.00
2019-02-11T02:15:48.975Z,16.00
2019-02-11T02:18:19.126Z,16.00
2019-02-11T02:20:49.271Z,16.00
2019-02-11T02:23:19.463Z,16.00
2019-02-11T02:25:50.510Z,16.00
2019-02-11T02:28:20.683Z,16.00
2019-02-11T02:30:50.818Z,16.00
2019-02-11T02:33:20.960Z,16.10
2019-02-11T02:35:51.119Z,16.00
2019-02-11T02:38:21.344Z,16.00
2019-02-11T02:40:52.407Z,16.00
2019-02-11T02:43:22.545Z,16.00
2019-02-11T02:45:52.770Z,16.00
2019-02-11T02:48:22.914Z,16.00
2019-02-11T02:50:53.080Z,16.00
2019-02-11T02:53:23.286Z,16.00
2019-02-11T02:55:53.439Z,16.00
2019-02-11T02:58:23.679Z,15.90
2019-02-11T03:00:53.872Z,15.90
2019-02-11T03:03:24.011Z,15.90
2019-02-11T03:05:54.189Z,15.90
2019-02-11T03:08:24.332Z,15.90
2019-02-11T03:10:54.510Z,16.00
2019-02-11T03:13:24.657Z,16.00
2019-02-11T03:15:54.827Z,16.00
2019-02-11T03:18:24.972Z,16.00
2019-02-11T03:20:55.135Z,16.10
2019-02-11T03:23:25.527Z,16.10
2019-02-11T03:25:55.710Z,16.20
2019-02-11T03:28:25.857Z,16.20
2019-02-11T03:30:56.020Z,16.30
2019-02-11T03:33:26.160Z,16.30
2019-02-11T03:35:56.325Z,16.30
2019-02-11T03:38:26.759Z,16.30
2019-02-11T03:40:57.101Z,16.40
2019-02-11T03:43:28.227Z,16.40
2019-02-11T03:45:58.362Z,16.40
2019-02-11T03:48:28.507Z,16.50
2019-02-11T03:50:58.639Z,16.50
2019-02-11T03:53:28.864Z,16.50
2019-02-11T03:55:58.995Z,16.50
2019-02-11T03:58:29.163Z,16.50
2019-02-11T04:00:59.303Z,16.60
2019-02-11T04:03:30.368Z,16.60
2019-02-11T04:06:01.424Z,16.60
2019-02-11T04:08:31.590Z,16.60
2019-02-11T04:11:01.823Z,16.60
2019-02-11T04:13:31.975Z,16.70
2019-02-11T04:16:02.111Z,16.70
2019-02-11T04:18:32.283Z,16.70
2019-02-11T04:21:02.490Z,16.70
2019-02-11T04:23:32.643Z,16.70
2019-02-11T04:26:02.780Z,16.70
2019-02-11T04:28:33.914Z,16.80
2019-02-11T04:31:04.052Z,16.70
2019-02-11T04:33:34.208Z,16.70
2019-02-11T04:36:04.339Z,16.80
2019-02-11T04:38:34.965Z,16.80
2019-02-11T04:41:05.199Z,16.80
2019-02-11T04:43:35.327Z,16.80
2019-02-11T04:46:05.476Z,16.80
2019-02-11T04:48:35.635Z,16.80
2019-02-11T04:51:05.790Z,16.80
2019-02-11T04:53:36.927Z,16.80
2019-02-11T04:56:07.079Z,16.80
2019-02-11T04:58:37.259Z,16.80
2019-02-11T05:01:08.327Z,16.80
2019-02-11T05:03:38.535Z,16.80
2019-02-11T05:06:08.685Z,16.90
2019-02-11T05:08:38.835Z,16.90
2019-02-11T05:11:08.999Z,16.90
2019-02-11T05:13:39.238Z,16.90
2019-02-11T05:16:09.408Z,16.90
2019-02-11T05:18:40.540Z,16.90
2019-02-11T05:21:11.705Z,16.90
2019-02-11T05:23:41.834Z,16.90
2019-02-11T05:26:11.997Z,16.90
2019-02-11T05:28:42.128Z,17.00
2019-02-11T05:31:12.569Z,16.90
2019-02-11T05:33:42.712Z,17.00
2019-02-11T05:36:12.891Z,17.00
2019-02-11T05:38:43.027Z,17.00
2019-02-11T05:41:13.218Z,17.00
2019-02-11T05:43:43.375Z,17.00
2019-02-11T05:46:13.509Z,17.00
2019-02-11T05:48:43.727Z,17.00
2019-02-11T05:51:13.859Z,17.00
2019-02-11T05:53:44.035Z,17.00
2019-02-11T05:56:14.171Z,17.00
2019-02-11T05:58:45.248Z,17.00
2019-02-11T06:01:16.184Z,17.00
2019-02-11T06:03:46.350Z,17.00
2019-02-11T06:06:16.503Z,17.00
2019-02-11T06:08:47.599Z,17.00
2019-02-11T06:11:17.788Z,17.00
2019-02-11T06:13:47.943Z,17.00
2019-02-11T06:16:18.071Z,17.00
2019-02-11T06:18:48.217Z,17.00
2019-02-11T06:21:18.451Z,17.00
2019-02-11T06:23:48.616Z,17.00
2019-02-11T06:26:18.791Z,17.00
2019-02-11T06:28:48.943Z,17.00
2019-02-11T06:31:19.163Z,17.10
2019-02-11T06:33:49.375Z,17.10
2019-02-11T06:36:20.011Z,17.00
2019-02-11T06:38:50.156Z,17.00
2019-02-11T06:41:20.287Z,17.00
2019-02-11T06:43:50.896Z,17.00
2019-02-11T06:46:21.092Z,17.00
2019-02-11T06:48:51.243Z,17.00
2019-02-11T06:51:22.139Z,17.00
2019-02-11T06:53:52.291Z,16.90
2019-02-11T06:56:22.447Z,16.90
2019-02-11T06:58:52.603Z,16.90
2019-02-11T07:01:22.747Z,16.80
2019-02-11T07:03:52.921Z,16.80
2019-02-11T07:06:23.075Z,16.80
2019-02-11T07:08:53.215Z,16.70
2019-02-11T07:11:23.559Z,16.70
2019-02-11T07:13:54.345Z,16.70
2019-02-11T07:16:24.512Z,16.70
2019-02-11T07:18:54.663Z,16.60
2019-02-11T07:21:24.836Z,16.70
2019-02-11T07:23:55.019Z,16.70
2019-02-11T07:26:25.902Z,16.60
2019-02-11T07:28:56.383Z,16.60
2019-02-11T07:31:26.551Z,16.60
2019-02-11T07:33:56.699Z,16.60
2019-02-11T07:36:26.843Z,16.60
2019-02-11T07:38:57.068Z,16.60
2019-02-11T07:41:42.707Z,16.50
2019-02-11T07:44:19.855Z,16.50
2019-02-11T07:47:01.107Z,16.50
2019-02-11T07:49:31.567Z,16.50
2019-02-11T07:52:01.803Z,16.50
2019-02-11T07:54:32.288Z,16.50
2019-02-11T07:57:03.155Z,16.50
2019-02-11T07:59:33.315Z,16.50
2019-02-11T08:02:03.528Z,16.50
2019-02-11T08:04:33.683Z,16.50
2019-02-11T08:07:03.851Z,16.50
2019-02-11T08:09:33.996Z,16.50
2019-02-11T08:12:04.912Z,16.50
2019-02-11T08:14:35.073Z,16.40
2019-02-11T08:17:05.231Z,16.40
2019-02-11T08:19:35.492Z,16.40
2019-02-11T08:22:05.816Z,16.40
2019-02-11T08:24:35.983Z,16.40
2019-02-11T08:27:06.135Z,16.40
2019-02-11T08:29:36.740Z,16.40
2019-02-11T08:32:06.969Z,16.40
2019-02-11T08:34:37.123Z,16.40
2019-02-11T08:37:08.031Z,16.40
2019-02-11T08:39:38.179Z,16.40
2019-02-11T08:42:08.509Z,16.40
2019-02-11T08:44:38.655Z,16.40
2019-02-11T08:47:09.000Z,16.40
2019-02-11T08:49:39.135Z,16.40
2019-02-11T08:52:09.299Z,16.40
2019-02-11T08:54:39.939Z,16.40
2019-02-11T08:57:11.087Z,16.40
2019-02-11T08:59:41.339Z,16.40
2019-02-11T09:02:12.675Z,16.40
2019-02-11T09:04:42.911Z,16.40
2019-02-11T09:07:13.271Z,16.40
2019-02-11T09:09:43.471Z,16.40
2019-02-11T09:12:13.800Z,16.40
2019-02-11T09:14:44.319Z,16.40
2019-02-11T09:17:14.484Z,16.40
2019-02-11T09:19:44.630Z,16.40
2019-02-11T09:22:14.888Z,16.40
2019-02-11T09:24:45.037Z,16.40
2019-02-11T09:27:15.247Z,16.40
2019-02-11T09:29:45.487Z,16.40
2019-02-11T09:32:15.636Z,16.40
2019-02-11T09:34:46.155Z,16.40
2019-02-11T09:37:16.310Z,16.40
2019-02-11T09:39:46.439Z,16.40
2019-02-11T09:42:16.623Z,16.40
2019-02-11T09:44:46.764Z,16.40
2019-02-11T09:47:17.959Z,16.40
2019-02-11T09:50:09.976Z,16.40
2019-02-11T09:52:40.135Z,16.40
2019-02-11T09:55:15.003Z,16.40
2019-02-11T09:57:45.243Z,16.40
2019-02-11T10:00:17.543Z,16.30
2019-02-11T10:02:47.686Z,16.40
2019-02-11T10:05:17.896Z,16.40
2019-02-11T10:07:48.032Z,16.40
2019-02-11T10:10:18.208Z,16.30
2019-02-11T10:12:48.339Z,16.30
2019-02-11T10:15:18.579Z,16.40
2019-02-11T10:17:48.719Z,16.30
2019-02-11T10:20:18.891Z,16.30
2019-02-11T10:22:49.099Z,16.30
2019-02-11T10:25:24.063Z,16.30
2019-02-11T10:27:56.219Z,16.40
2019-02-11T10:30:26.535Z,16.30
2019-02-11T10:32:56.687Z,16.30
2019-02-11T10:35:26.831Z,16.30
2019-02-11T10:37:56.994Z,16.30
2019-02-11T10:40:27.267Z,16.30
2019-02-11T10:42:57.436Z,16.30
2019-02-11T10:45:27.571Z,16.30
2019-02-11T10:47:57.732Z,16.30
2019-02-11T10:50:27.872Z,16.30
2019-02-11T10:52:58.040Z,16.30
2019-02-11T10:55:28.680Z,16.30
2019-02-11T10:57:58.852Z,16.30
2019-02-11T11:00:29.055Z,16.30
2019-02-11T11:02:59.331Z,16.30
2019-02-11T11:05:29.563Z,16.30
2019-02-11T11:08:00.111Z,16.30
2019-02-11T11:10:32.339Z,16.30
2019-02-11T11:13:02.487Z,16.30
2019-02-11T11:15:33.615Z,16.30
2019-02-11T11:18:04.739Z,16.20
2019-02-11T11:20:34.947Z,16.20
2019-02-11T11:23:05.240Z,16.20
2019-02-11T11:25:35.346Z,16.30
2019-02-11T11:28:05.512Z,16.20
2019-02-11T11:30:37.882Z,16.20
2019-02-11T11:33:08.051Z,16.20
2019-02-11T11:35:38.218Z,16.20
2019-02-11T11:38:08.355Z,16.20
2019-02-11T11:40:38.594Z,16.20
2019-02-11T11:43:10.387Z,16.30
2019-02-11T11:45:40.657Z,16.30
2019-02-11T11:48:10.776Z,16.30
2019-02-11T11:50:41.879Z,16.30
2019-02-11T11:53:12.022Z,16.30
2019-02-11T11:55:42.865Z,16.20
2019-02-11T11:58:13.010Z,16.30
2019-02-11T12:00:43.550Z,16.30
2019-02-11T12:03:13.712Z,16.30
2019-02-11T12:05:43.854Z,16.30
2019-02-11T12:08:14.028Z,16.30
2019-02-11T12:10:44.166Z,16.30
2019-02-11T12:13:22.220Z,16.30
2019-02-11T12:15:47.059Z,16.40
2019-02-11T12:18:17.358Z,16.40
2019-02-11T12:20:48.454Z,16.40
2019-02-11T12:23:18.671Z,16.40
2019-02-11T12:25:49.038Z,16.50
2019-02-11T12:28:19.199Z,16.50
2019-02-11T12:30:53.385Z,16.50
2019-02-11T12:33:22.048Z,16.50
2019-02-11T12:35:52.450Z,16.60
2019-02-11T12:38:22.705Z,16.60
2019-02-11T12:40:52.844Z,16.60
2019-02-11T12:43:22.980Z,16.70
2019-02-11T12:45:53.249Z,16.70
2019-02-11T12:48:23.457Z,16.70
2019-02-11T12:50:54.516Z,16.70
2019-02-11T12:53:25.419Z,16.80
2019-02-11T12:55:55.838Z,16.80
2019-02-11T12:58:26.173Z,16.80
2019-02-11T13:00:57.392Z,16.80
2019-02-11T13:03:27.547Z,16.80
2019-02-11T13:05:57.722Z,16.80
2019-02-11T13:08:27.862Z,16.80
2019-02-11T13:10:58.089Z,16.90
2019-02-11T13:13:29.139Z,16.90
2019-02-11T13:16:02.528Z,16.90
2019-02-11T13:18:32.261Z,17.00
2019-02-11T13:21:02.535Z,17.00
2019-02-11T13:23:32.635Z,17.00
2019-02-11T13:26:02.853Z,17.00
2019-02-11T13:28:32.988Z,17.00
2019-02-11T13:31:03.121Z,17.00
2019-02-11T13:33:33.273Z,17.00
2019-02-11T13:36:03.470Z,17.10
2019-02-11T13:38:34.788Z,17.10
2019-02-11T13:41:04.956Z,17.10
2019-02-11T13:43:35.195Z,17.10
2019-02-11T13:46:05.429Z,17.10
2019-02-11T13:48:36.508Z,17.10
2019-02-11T13:51:06.757Z,17.20
2019-02-11T13:53:36.951Z,17.20
2019-02-11T13:56:07.484Z,17.20
2019-02-11T13:58:37.643Z,17.20
2019-02-11T14:01:10.629Z,17.20
2019-02-11T14:03:40.903Z,17.20
2019-02-11T14:06:11.095Z,17.20
2019-02-11T14:08:42.441Z,17.20
2019-02-11T14:11:13.733Z,17.20
2019-02-11T14:14:00.604Z,17.20
2019-02-11T14:16:15.936Z,17.20
2019-02-11T14:18:46.116Z,17.20
2019-02-11T14:21:16.890Z,17.30
2019-02-11T14:23:47.158Z,17.20
2019-02-11T14:26:17.377Z,17.30
2019-02-11T14:28:49.656Z,17.30
2019-02-11T14:31:20.485Z,17.30
2019-02-11T14:33:50.826Z,17.30
2019-02-11T14:36:21.237Z,17.30
2019-02-11T14:38:52.405Z,17.30
2019-02-11T14:41:22.716Z,17.30
2019-02-11T14:43:53.083Z,17.30
2019-02-11T14:46:23.383Z,17.30
2019-02-11T14:48:53.698Z,17.30
2019-02-11T14:51:24.151Z,17.40
2019-02-11T14:53:54.495Z,17.30
2019-02-11T14:56:24.835Z,17.30
2019-02-11T14:58:55.003Z,17.30
2019-02-11T15:01:25.163Z,17.40
2019-02-11T15:03:55.807Z,17.30
2019-02-11T15:06:26.324Z,17.30
2019-02-11T15:08:56.487Z,17.30
2019-02-11T15:11:26.715Z,17.30
2019-02-11T15:13:56.885Z,17.30
2019-02-11T15:16:27.040Z,17.30
2019-02-11T15:18:58.135Z,17.30
2019-02-11T15:21:28.463Z,17.40
2019-02-11T15:23:58.615Z,17.40
2019-02-11T15:26:28.759Z,17.40
2019-02-11T15:28:58.987Z,17.40
2019-02-11T15:31:29.152Z,17.40
2019-02-11T15:33:59.312Z,17.40
2019-02-11T15:36:30.363Z,17.50
2019-02-11T15:39:00.839Z,17.50
2019-02-11T15:41:32.719Z,17.50
2019-02-11T15:44:02.865Z,17.50
2019-02-11T15:46:33.939Z,17.50
2019-02-11T15:49:04.233Z,17.50
2019-02-11T15:51:34.369Z,17.50
2019-02-11T15:54:04.527Z,17.50
2019-02-11T15:56:34.706Z,17.50
2019-02-11T15:59:04.915Z,17.50
2019-02-11T16:01:35.844Z,17.60
2019-02-11T16:04:06.031Z,17.60
2019-02-11T16:06:38.343Z,17.60
2019-02-11T16:09:08.591Z,17.60
2019-02-11T16:11:38.817Z,17.60
2019-02-11T16:14:08.975Z,17.60
2019-02-11T16:16:39.139Z,17.60
2019-02-11T16:19:09.319Z,17.60
2019-02-11T16:21:40.380Z,17.60
2019-02-11T16:24:10.544Z,17.60
2019-02-11T16:26:40.683Z,17.60
2019-02-11T16:29:10.848Z,17.60
2019-02-11T16:31:40.984Z,17.60
2019-02-11T16:34:11.167Z,17.60
2019-02-11T16:36:41.391Z,17.60
2019-02-11T16:39:11.535Z,17.60
2019-02-11T16:41:42.048Z,17.60
2019-02-11T16:44:12.283Z,17.60
2019-02-11T16:46:42.891Z,17.60
2019-02-11T16:49:13.088Z,17.60
2019-02-11T16:51:43.231Z,17.70
2019-02-11T16:54:13.455Z,17.70
2019-02-11T16:56:43.953Z,17.70
2019-02-11T16:59:14.887Z,17.60
2019-02-11T17:01:45.047Z,17.70
2019-02-11T17:04:15.467Z,17.70
2019-02-11T17:06:45.631Z,17.70
2019-02-11T17:09:16.267Z,17.70
2019-02-11T17:11:46.502Z,17.70
2019-02-11T17:14:16.664Z,17.60
2019-02-11T17:16:47.042Z,17.70
2019-02-11T17:19:17.693Z,17.60
2019-02-11T17:21:47.994Z,17.70
2019-02-11T17:24:19.220Z,17.70
2019-02-11T17:26:49.395Z,17.70
2019-02-11T17:29:19.579Z,17.70
2019-02-11T17:31:50.263Z,17.70
2019-02-11T17:34:20.417Z,17.70
2019-02-11T17:36:50.603Z,17.70
2019-02-11T17:39:20.755Z,17.60
2019-02-11T17:41:50.911Z,17.70
2019-02-11T17:44:21.199Z,17.70
2019-02-11T17:46:52.272Z,17.70
2019-02-11T17:49:23.370Z,17.60
2019-02-11T17:51:53.565Z,17.60
2019-02-11T17:54:25.004Z,17.60
2019-02-11T17:56:55.276Z,17.70
2019-02-11T17:59:25.587Z,17.60
2019-02-11T18:01:55.829Z,17.70
2019-02-11T18:04:26.015Z,17.60
2019-02-11T18:06:56.271Z,17.60
2019-02-11T18:09:26.883Z,17.60
2019-02-11T18:11:57.121Z,17.60
2019-02-11T18:14:27.260Z,17.60
2019-02-11T18:16:58.446Z,17.70
2019-02-11T18:19:29.884Z,17.70
2019-02-11T18:22:00.007Z,17.60
2019-02-11T18:24:30.176Z,17.60
2019-02-11T18:27:00.375Z,17.60
2019-02-11T18:29:30.691Z,17.60
2019-02-11T18:32:00.894Z,17.60
2019-02-11T18:34:31.169Z,17.60
2019-02-11T18:37:01.352Z,17.60
2019-02-11T18:39:31.520Z,17.60
2019-02-11T18:42:01.662Z,17.60
2019-02-11T18:44:31.944Z,17.60
2019-02-11T18:47:02.083Z,17.60
2019-02-11T18:49:34.607Z,17.60
2019-02-11T18:52:04.255Z,17.60
2019-02-11T18:54:34.421Z,17.60
2019-02-11T18:57:06.251Z,17.60
2019-02-11T18:59:36.370Z,17.60
2019-02-11T19:02:07.292Z,17.60
2019-02-11T19:04:37.535Z,17.60
2019-02-11T19:07:07.779Z,17.60
2019-02-11T19:09:37.924Z,17.60
2019-02-11T19:12:09.087Z,17.60
2019-02-11T19:14:39.219Z,17.60
2019-02-11T19:17:09.377Z,17.50
2019-02-11T19:19:43.157Z,17.50
2019-02-11T19:22:11.449Z,17.50
2019-02-11T19:24:41.611Z,17.50
2019-02-11T19:27:11.830Z,17.40
2019-02-11T19:29:42.476Z,17.40
2019-02-11T19:32:12.636Z,17.40
2019-02-11T19:34:42.788Z,17.30
2019-02-11T19:37:12.935Z,17.30
2019-02-11T19:39:44.065Z,17.30
2019-02-11T19:42:14.496Z,17.30
2019-02-11T19:44:44.680Z,17.30
2019-02-11T19:47:14.848Z,17.20
2019-02-11T19:49:51.774Z,17.20
2019-02-11T19:52:17.688Z,17.20
2019-02-11T19:54:47.777Z,17.20
2019-02-11T19:57:18.383Z,17.20
2019-02-11T19:59:48.548Z,17.20
2019-02-11T20:02:18.687Z,17.20
2019-02-11T20:04:48.910Z,17.20
2019-02-11T20:07:19.131Z,17.20
2019-02-11T20:09:49.260Z,17.10
2019-02-11T20:12:19.459Z,17.10
2019-02-11T20:14:49.603Z,17.10
2019-02-11T20:17:20.123Z,17.10
2019-02-11T20:19:50.279Z,17.10
2019-02-11T20:22:20.446Z,17.10
2019-02-11T20:24:50.595Z,17.00
2019-02-11T20:27:20.731Z,17.00
2019-02-11T20:29:51.807Z,17.00
2019-02-11T20:32:21.964Z,17.00
2019-02-11T20:34:52.216Z,17.00
2019-02-11T20:37:22.347Z,17.00
2019-02-11T20:39:52.600Z,17.00
2019-02-11T20:42:22.735Z,17.00
2019-02-11T20:44:52.900Z,17.00
2019-02-11T20:47:23.116Z,17.00
2019-02-11T20:49:53.307Z,16.90
2019-02-11T20:52:23.441Z,16.90
2019-02-11T20:54:53.607Z,16.90
2019-02-11T20:57:23.747Z,16.90
2019-02-11T20:59:53.927Z,16.90
2019-02-11T21:02:24.052Z,16.90
2019-02-11T21:04:55.227Z,16.80
2019-02-11T21:07:25.367Z,16.80
2019-02-11T21:09:55.508Z,16.80
2019-02-11T21:12:25.627Z,16.80
2019-02-11T21:14:55.811Z,16.80
2019-02-11T21:17:26.011Z,16.80
2019-02-11T21:19:56.180Z,16.80
2019-02-11T21:22:26.659Z,16.80
2019-02-11T21:24:56.815Z,16.80
2019-02-11T21:27:26.936Z,16.70
2019-02-11T21:29:57.647Z,16.70
2019-02-11T21:32:27.804Z,16.70
2019-02-11T21:34:57.948Z,16.70
2019-02-11T21:37:28.692Z,16.70
2019-02-11T21:39:58.855Z,16.70
2019-02-11T21:42:29.023Z,16.70
2019-02-11T21:44:59.152Z,16.70
2019-02-11T21:47:29.304Z,16.70
2019-02-11T21:49:59.645Z,16.70
2019-02-11T21:52:29.904Z,16.70
2019-02-11T21:55:00.025Z,16.70
2019-02-11T21:57:30.177Z,16.60
2019-02-11T22:00:00.329Z,16.60
2019-02-11T22:02:30.467Z,16.60
2019-02-11T22:05:00.631Z,16.60
2019-02-11T22:07:30.843Z,16.60
2019-02-11T22:10:01.806Z,16.60
2019-02-11T22:12:31.999Z,16.60
2019-02-11T22:15:02.162Z,16.60
2019-02-11T22:17:32.363Z,16.60
2019-02-11T22:20:02.531Z,16.60
2019-02-11T22:22:32.699Z,16.50
2019-02-11T22:25:03.780Z,16.50
2019-02-11T22:27:33.947Z,16.50
2019-02-11T22:30:04.272Z,16.50
2019-02-11T22:32:34.424Z,16.50
2019-02-11T22:35:04.853Z,16.50
2019-02-11T22:37:35.010Z,16.50
2019-02-11T22:40:05.870Z,16.50
2019-02-11T22:42:36.055Z,16.50
2019-02-11T22:45:07.051Z,16.40
2019-02-11T22:47:37.190Z,16.40
2019-02-11T22:50:08.163Z,16.40
2019-02-11T22:52:38.788Z,16.40
2019-02-11T22:55:09.499Z,16.40
2019-02-11T22:57:39.780Z,16.40
2019-02-11T23:00:25.211Z,16.40
2019-02-11T23:02:56.226Z,16.30
2019-02-11T23:05:27.272Z,16.30
2019-02-11T23:07:57.454Z,16.30
2019-02-11T23:10:27.579Z,16.30
2019-02-11T23:12:57.739Z,16.30
2019-02-11T23:15:27.876Z,16.30
2019-02-11T23:17:58.027Z,16.30
2019-02-11T23:20:28.707Z,16.30
2019-02-11T23:22:58.823Z,16.30
2019-02-11T23:25:29.247Z,16.30
2019-02-11T23:27:59.378Z,16.30
2019-02-11T23:30:29.539Z,16.30
2019-02-11T23:32:59.664Z,16.20
2019-02-11T23:35:29.819Z,16.20
2019-02-11T23:38:00.031Z,16.20
2019-02-11T23:40:30.193Z,16.20
2019-02-11T23:43:00.321Z,16.20
2019-02-11T23:45:30.507Z,16.20
2019-02-11T23:48:00.676Z,16.20
2019-02-11T23:50:30.881Z,16.20
2019-02-11T23:53:02.072Z,16.20
2019-02-11T23:55:32.203Z,16.20
2019-02-11T23:58:02.687Z,16.20
